Corpus Christi, TX

2:48 AM CDT on August 04, 2015 (GMT -0500)
King Estates | | Change Station
CLOSE
Current Station
Personal Weather Station
Location: Corpus Christi, TX
Elevation: 17 ft
Nearby Weather Stations

Elev 17 ft 27.65 °N, 97.41 °W | Updated 4 seconds ago

Mostly Cloudy
Mostly Cloudy
81.8 °F
Feels Like 91 °F
N
5.0
Wind Variable Wind from SSE
Gusts 5.0 mph

Today
High -- | Low -- °F
--% Chance of Precip.
Yesterday
High -- | Low -- °F
Precip. -- in
6:54 AM 8:16 PM
Waning Gibbous, 80% visible
Pressure 29.90 in
Visibility 10.0 miles
Clouds Few 1900 ft
Scattered Clouds 7500 ft
Mostly Cloudy 25000 ft
Heat Index 91 °F
Dew Point 79 °F
Humidity 91%
Rainfall 0.00 in
Snow Depth Not available.
UV 0 out of 12
Pollen 4.00 out of 12
Air Quality Not available.
Flu Activity Not available.
METAR KCRP 040651Z COR 16008KT 10SM FEW019 SCT075 BKN250 27/26 A2990 RMK AO2 SLP124 T02720256

More Conditions Fewer Conditions

Pressure 29.90 in
Visibility 10.0 miles
Clouds Few 1900 ft
Scattered Clouds 7500 ft
Mostly Cloudy 25000 ft
Heat Index 91 °F
Dew Point 79 °F
Humidity 91%
Rainfall 0.00 in
Snow Depth Not available.
UV 0 out of 12
Pollen 4.00 out of 12
Air Quality Not available.
Flu Activity Not available.
METAR KCRP 040651Z COR 16008KT 10SM FEW019 SCT075 BKN250 27/26 A2990 RMK AO2 SLP124 T02720256

More Conditions Fewer Conditions

Nowcast | as of 2:38 am CDT on August 4, 2015

Through 530 am...isolated showers and possible thunderstorms will continue to develop over the Gulf of Mexico. Brief moderate to heavy rainfall will be the main concern with the showers...as they move north around 30 knots. Most of the showers will weaken as they approach the coast...but could produce a quick couple of hundredths of an inch of rain. Locally heavier rainfall and an occasional cloud to water lightning strike can be expected with any thunderstorm which could develop.

×

10-Day Weather Forecast

×

Almanac

Astronomy

Aug. 04, 2015 Rise Set
Actual Time
Civil Twilight
Nautical Twilight
Astronomical Twilight
Moon
Length of Visible Light
Length of Day
Tomorrow will be .
, % of the Moon is Illuminated

Today's Extremes

State Highs State Lows

Community

WunderPhotos

Upload Photos

1,843,877 photos uploaded!

WunderBlogs® & News

Nearby

Air Quality

  Air Quality AQ Index Pollutant
Not available.

Snow Depth

Station Depth Elevation

Earthquake Activity

City Distance Mag. Time & Date
Minimum magnitude displayed is 2.5.

Coastal Water Temperatures

Place Temperature

Stations

Nearby Weather Stations

Station Location Temp. Windchill Dew Point Humidity Wind Precip. Elev Updated Type